Time;durP1;ratioP1;P1;durP2;ratioP2;P2;SDS_P1;SDS_P2;PMS_P1;PMS_P2;Temp;Humidity;BMP_temperature;BMP_pressure;BME280_temperature;BME280_humidity;BME280_pressure;Samples;Min_cycle;Max_cycle;Signal;HPM_P1;HPM_P2
2023/12/04 00:01:49;;;;;;;;;;;;;;;25.81;40.25;94169.44;4974941;28;9033;-86
2023/12/04 00:04:20;;;;;;;;;;;;;;;25.79;40.17;94161.69;4970151;28;7067;-86
2023/12/04 00:06:51;;;;;;;;;;;;;;;25.79;40.15;94153.44;4957593;28;9877;-85
2023/12/04 00:09:23;;;;;;;;;;;;;;;25.77;40.49;94144.94;4957633;28;9095;-86
2023/12/04 00:11:49;;;;;;;;;;;;;;;25.78;40.40;94140.91;4970166;28;9016;-86
2023/12/04 00:14:15;;;;;;;;;;;;;;;25.76;40.24;94137.16;4958309;28;7274;-88
2023/12/04 00:16:43;;;;;;;;;;;;;;;25.76;40.21;94135.16;4954066;28;7270;-88
2023/12/04 00:19:16;;;;;;;;;;;;;;;25.74;40.25;94134.94;4963558;28;8774;-88
2023/12/04 00:21:52;;;;;;;;;;;;;;;25.73;40.44;94129.97;4973454;28;8811;-88
2023/12/04 00:24:18;;;;;;;;;;;;;;;25.76;40.09;94137.94;4955381;28;9026;-88
2023/12/04 00:26:45;;;;;;;;;;;;;;;25.76;40.11;94143.44;4950553;28;8708;-88
2023/12/04 00:29:13;;;;;;;;;;;;;;;25.71;40.06;94124.22;4957311;28;8736;-88
2023/12/04 00:31:43;;;;;;;;;;;;;;;25.76;39.59;94137.94;4958093;28;7539;-88
2023/12/04 00:34:14;;;;;;;;;;;;;;;25.77;39.78;94133.91;4951585;28;7272;-88
2023/12/04 00:36:41;;;;;;;;;;;;;;;25.73;39.96;94116.91;4962984;28;8603;-88
2023/12/04 00:39:09;;;;;;;;;;;;;;;25.72;40.32;94111.94;4973642;28;8804;-88
2023/12/04 00:41:35;;;;;;;;;;;;;;;25.73;39.81;94111.41;4954028;28;6874;-88
2023/12/04 00:44:03;;;;;;;;;;;;;;;25.76;39.55;94113.13;4966772;28;8757;-88
2023/12/04 00:46:36;;;;;;;;;;;;;;;25.75;40.14;94119.16;4956690;28;7604;-88
2023/12/04 00:49:03;;;;;;;;;;;;;;;25.76;40.29;94115.13;4956569;28;8775;-88
2023/12/04 00:51:37;;;;;;;;;;;;;;;25.75;40.04;94108.88;4958135;28;8803;-88
2023/12/04 00:54:05;;;;;;;;;;;;;;;25.74;40.20;94101.13;4956382;28;7517;-88
2023/12/04 00:56:33;;;;;;;;;;;;;;;25.74;40.19;94106.63;4961216;28;9285;-89
2023/12/04 00:58:59;;;;;;;;;;;;;;;25.68;40.33;94098.47;4948591;28;7512;-88
2023/12/04 01:01:27;;;;;;;;;;;;;;;25.70;40.36;94095.94;4956960;28;8710;-88
2023/12/04 01:04:02;;;;;;;;;;;;;;;25.73;39.94;94105.16;4967676;28;9090;-89
2023/12/04 01:06:33;;;;;;;;;;;;;;;25.72;40.13;94112.69;4956592;28;9062;-88
2023/12/04 01:08:59;;;;;;;;;;;;;;;25.68;39.99;94103.97;4957006;28;8996;-88
2023/12/04 01:11:37;;;;;;;;;;;;;;;25.70;39.66;94106.19;4961178;28;7267;-89
2023/12/04 01:14:03;;;;;;;;;;;;;;;25.71;40.17;94119.44;4949529;28;10123;-89
2023/12/04 01:16:31;;;;;;;;;;;;;;;25.75;39.66;94130.19;4956958;28;7292;-88
2023/12/04 01:18:57;;;;;;;;;;;;;;;25.72;40.35;94120.19;4950599;28;8728;-88
2023/12/04 01:21:26;;;;;;;;;;;;;;;25.70;39.89;94115.22;4956434;28;8604;-88
2023/12/04 01:23:57;;;;;;;;;;;;;;;25.71;39.82;94127.69;4967734;28;9084;-87
2023/12/04 01:26:24;;;;;;;;;;;;;;;25.72;39.87;94120.94;4973240;28;7277;-86
2023/12/04 01:28:52;;;;;;;;;;;;;;;25.67;39.91;94113.47;4956941;28;8997;-86
2023/12/04 01:31:25;;;;;;;;;;;;;;;25.71;39.61;94124.94;4956323;28;9080;-86
2023/12/04 01:33:53;;;;;;;;;;;;;;;25.69;39.46;94110.19;4956500;28;7281;-86
2023/12/04 01:36:21;;;;;;;;;;;;;;;25.72;39.81;94112.69;4955218;28;9035;-86
2023/12/04 01:38:48;;;;;;;;;;;;;;;25.69;39.31;94102.69;4956299;28;7260;-87
2023/12/04 01:41:14;;;;;;;;;;;;;;;25.66;39.40;94095.47;4973009;28;9009;-87
2023/12/04 01:43:44;;;;;;;;;;;;;;;25.66;39.68;94095.47;4953224;28;8757;-87
2023/12/04 01:46:22;;;;;;;;;;;;;;;25.71;40.16;94096.69;4966826;28;9020;-87
2023/12/04 01:48:53;;;;;;;;;;;;;;;25.66;39.36;94081.72;4952920;28;7217;-86
2023/12/04 01:51:20;;;;;;;;;;;;;;;25.71;39.68;94080.16;4971106;28;8825;-87
2023/12/04 01:54:00;;;;;;;;;;;;;;;25.71;39.34;94080.88;4941921;28;6986;-87
2023/12/04 01:56:34;;;;;;;;;;;;;;;25.69;39.59;94072.38;4948720;28;8610;-87
2023/12/04 01:59:00;;;;;;;;;;;;;;;25.66;40.02;94067.94;4953715;28;8742;-87
2023/12/04 02:01:27;;;;;;;;;;;;;;;25.68;39.70;94065.41;4946020;28;8696;-87
2023/12/04 02:04:04;;;;;;;;;;;;;;;25.68;39.98;94062.66;4974526;28;6982;-87
2023/12/04 02:06:30;;;;;;;;;;;;;;;25.66;39.67;94059.66;4975312;28;6977;-87
2023/12/04 02:08:57;;;;;;;;;;;;;;;25.65;39.62;94055.41;4954705;28;9083;-86
2023/12/04 02:11:24;;;;;;;;;;;;;;;25.63;39.74;94063.44;4965724;28;9034;-87
2023/12/04 02:13:55;;;;;;;;;;;;;;;25.70;39.91;94056.63;4956066;28;8732;-87
2023/12/04 02:16:33;;;;;;;;;;;;;;;25.62;39.73;94047.44;4947321;28;8968;-87
2023/12/04 02:19:00;;;;;;;;;;;;;;;25.65;39.79;94055.41;4951640;28;7122;-87
2023/12/04 02:21:30;;;;;;;;;;;;;;;25.65;39.68;94055.41;4954733;28;7422;-87
2023/12/04 02:23:56;;;;;;;;;;;;;;;25.64;39.50;94067.72;4971025;28;8744;-87
2023/12/04 02:26:31;;;;;;;;;;;;;;;25.66;39.91;94056.91;4952519;28;7156;-86
2023/12/04 02:29:16;;;;;;;;;;;;;;;25.67;39.56;94060.41;4954733;28;9029;-86
2023/12/04 02:31:55;;;;;;;;;;;;;;;25.67;39.80;94047.38;4951853;28;8719;-86
2023/12/04 02:34:25;;;;;;;;;;;;;;;25.66;39.74;94037.63;4973797;28;6865;-85
2023/12/04 02:37:01;;;;;;;;;;;;;;;25.66;39.48;94034.88;4955066;28;6881;-85
2023/12/04 02:39:33;;;;;;;;;;;;;;;25.66;39.68;94040.38;4951199;28;9023;-86
2023/12/04 02:41:59;;;;;;;;;;;;;;;25.65;39.44;94032.63;4957047;28;9134;-85
2023/12/04 02:44:27;;;;;;;;;;;;;;;25.67;39.31;94035.59;4951311;28;7289;-85
2023/12/04 02:46:55;;;;;;;;;;;;;;;25.68;39.43;94031.59;4967721;28;9007;-85
2023/12/04 02:49:28;;;;;;;;;;;;;;;25.66;39.95;94029.38;4972620;28;9005;-86
2023/12/04 02:52:03;;;;;;;;;;;;;;;25.66;39.61;94023.88;4954549;28;9051;-85
2023/12/04 02:54:29;;;;;;;;;;;;;;;25.67;39.88;94019.06;4955349;28;7281;-85
2023/12/04 02:57:03;;;;;;;;;;;;;;;25.67;39.40;94021.84;4949080;28;9198;-85
2023/12/04 02:59:59;;;;;;;;;;;;;;;25.67;39.44;94024.59;4951926;28;7005;-84
2023/12/04 03:02:36;;;;;;;;;;;;;;;25.66;39.08;94020.34;4874444;29;7241;-84
2023/12/04 03:05:13;;;;;;;;;;;;;;;25.66;39.29;94014.84;4875778;29;9010;-85
2023/12/04 03:07:51;;;;;;;;;;;;;;;25.64;39.55;94015.38;4853477;29;7026;-85
2023/12/04 03:10:18;;;;;;;;;;;;;;;25.65;39.08;94010.59;4857236;29;9022;-85
2023/12/04 03:12:45;;;;;;;;;;;;;;;25.64;39.28;94004.34;4855130;29;9796;-85
2023/12/04 03:15:14;;;;;;;;;;;;;;;25.64;39.24;94001.59;4859321;29;7326;-85
2023/12/04 03:17:43;;;;;;;;;;;;;;;25.62;39.83;93992.38;4873140;29;9363;-85
2023/12/04 03:20:10;;;;;;;;;;;;;;;25.66;38.99;93985.31;4858153;29;7030;-85
2023/12/04 03:22:42;;;;;;;;;;;;;;;25.62;39.72;93984.84;4859581;29;6989;-85
2023/12/04 03:25:12;;;;;;;;;;;;;;;25.59;39.61;93980.38;4874762;29;9011;-85
2023/12/04 03:27:49;;;;;;;;;;;;;;;25.63;39.48;93975.31;4847530;29;7046;-85
2023/12/04 03:30:15;;;;;;;;;;;;;;;25.64;39.25;93982.31;4860457;29;8737;-85
2023/12/04 03:32:51;;;;;;;;;;;;;;;25.65;39.07;93977.53;4853945;29;9026;-85
2023/12/04 03:35:22;;;;;;;;;;;;;;;25.65;39.04;93975.53;4860366;29;8995;-84
2023/12/04 03:37:51;;;;;;;;;;;;;;;25.63;39.30;93969.81;4879061;28;7002;-85
2023/12/04 03:40:29;;;;;;;;;;;;;;;25.60;39.25;93959.81;4982973;28;7104;-85
2023/12/04 03:42:55;;;;;;;;;;;;;;;25.61;39.65;93966.84;4958637;28;7237;-85
2023/12/04 03:45:34;;;;;;;;;;;;;;;25.59;39.68;93963.84;4972128;28;7242;-85
2023/12/04 03:48:02;;;;;;;;;;;;;;;25.60;39.36;93954.31;4973213;28;9041;-85
2023/12/04 03:50:28;;;;;;;;;;;;;;;25.60;38.80;93959.09;4974815;28;7285;-85
2023/12/04 03:52:59;;;;;;;;;;;;;;;25.65;39.33;93961.00;4951519;28;7219;-85
2023/12/04 03:55:34;;;;;;;;;;;;;;;25.65;39.26;93950.00;4954518;28;7258;-86
2023/12/04 03:58:01;;;;;;;;;;;;;;;25.63;39.15;93950.53;4958414;28;6890;-86
2023/12/04 04:00:29;;;;;;;;;;;;;;;25.59;39.23;93952.84;4977922;28;9059;-86
2023/12/04 04:03:00;;;;;;;;;;;;;;;25.61;39.49;93950.31;4974486;28;9364;-87
2023/12/04 04:05:26;;;;;;;;;;;;;;;25.63;39.39;93942.28;4957841;28;9295;-87
2023/12/04 04:08:01;;;;;;;;;;;;;;;25.64;39.26;93945.78;4975704;28;7260;-86
2023/12/04 04:10:28;;;;;;;;;;;;;;;25.60;39.05;93937.78;4960185;28;9357;-86
2023/12/04 04:13:02;;;;;;;;;;;;;;;25.63;39.30;93941.50;4959076;28;7275;-87
2023/12/04 04:15:29;;;;;;;;;;;;;;;25.63;38.79;93945.03;4956421;28;7090;-87
2023/12/04 04:17:57;;;;;;;;;;;;;;;25.61;38.96;93939.28;4952888;28;7232;-87
2023/12/04 04:20:45;;;;;;;;;;;;;;;25.59;39.16;93933.56;4958548;28;9003;-86
2023/12/04 04:23:11;;;;;;;;;;;;;;;25.62;39.32;93940.03;4964916;28;8229;-86
2023/12/04 04:25:47;;;;;;;;;;;;;;;25.61;38.94;93939.28;4966165;28;8805;-87
2023/12/04 04:28:21;;;;;;;;;;;;;;;25.60;39.05;93931.56;4955443;28;7331;-86
2023/12/04 04:30:56;;;;;;;;;;;;;;;25.61;39.02;93935.78;4957365;28;7121;-86
2023/12/04 04:33:22;;;;;;;;;;;;;;;25.60;39.21;93926.78;4973407;28;6877;-87
2023/12/04 04:35:56;;;;;;;;;;;;;;;25.62;39.45;93932.50;4957469;28;7581;-87
2023/12/04 04:38:27;;;;;;;;;;;;;;;25.58;39.63;93918.28;4956143;28;8764;-87
2023/12/04 04:40:57;;;;;;;;;;;;;;;25.62;39.25;93929.03;4954730;28;8775;-86
2023/12/04 04:43:30;;;;;;;;;;;;;;;25.63;39.08;93925.00;4953681;28;9330;-87
2023/12/04 04:45:56;;;;;;;;;;;;;;;25.58;38.78;93906.56;4960555;28;9071;-87
2023/12/04 04:48:24;;;;;;;;;;;;;;;25.62;38.81;93918.72;4954689;28;7085;-87
2023/12/04 04:50:53;;;;;;;;;;;;;;;25.57;38.58;93899.53;4956402;28;9260;-86
2023/12/04 04:53:21;;;;;;;;;;;;;;;25.57;39.39;93899.53;4951783;28;7041;-87
2023/12/04 04:55:49;;;;;;;;;;;;;;;25.57;39.13;93900.28;4973294;28;6949;-87
2023/12/04 04:58:28;;;;;;;;;;;;;;;25.61;39.31;93900.75;4950984;28;9035;-87
2023/12/04 05:01:21;;;;;;;;;;;;;;;25.58;39.06;93895.53;4950672;28;9017;-87
2023/12/04 05:03:49;;;;;;;;;;;;;;;25.61;38.99;93900.75;4877072;29;9469;-87
2023/12/04 05:06:18;;;;;;;;;;;;;;;25.60;38.93;93896.47;4895965;29;9013;-86
2023/12/04 05:08:55;;;;;;;;;;;;;;;25.61;38.76;93889.72;4877356;29;8773;-86
2023/12/04 05:11:22;;;;;;;;;;;;;;;25.59;38.75;93906.03;4878199;29;8790;-86
2023/12/04 05:13:50;;;;;;;;;;;;;;;25.55;39.34;93900.06;4875263;29;7267;-86
2023/12/04 05:16:16;;;;;;;;;;;;;;;25.59;38.95;93905.28;4873561;29;8425;-86
2023/12/04 05:18:42;;;;;;;;;;;;;;;25.62;39.31;93898.72;4891040;29;7232;-87
2023/12/04 05:21:12;;;;;;;;;;;;;;;25.56;39.22;93892.53;4895040;29;8761;-86
2023/12/04 05:23:50;;;;;;;;;;;;;;;25.60;39.23;93893.00;4866371;29;8908;-86
2023/12/04 05:26:16;;;;;;;;;;;;;;;25.58;38.86;93890.75;4875536;29;7134;-86
2023/12/04 05:28:49;;;;;;;;;;;;;;;25.65;38.74;93890.16;4890084;29;7274;-87
2023/12/04 05:31:17;;;;;;;;;;;;;;;25.64;39.02;93880.41;4880603;29;9185;-86
2023/12/04 05:33:45;;;;;;;;;;;;;;;25.64;39.05;93894.19;4879966;29;8989;-86
2023/12/04 05:36:12;;;;;;;;;;;;;;;25.64;39.13;93887.94;4884261;29;9095;-86
2023/12/04 05:38:38;;;;;;;;;;;;;;;25.62;39.40;93882.94;4869463;29;7243;-86
2023/12/04 05:41:06;;;;;;;;;;;;;;;25.61;38.40;93878.69;4929281;28;8613;-86
2023/12/04 05:43:33;;;;;;;;;;;;;;;25.59;38.77;93874.97;4953276;28;9076;-86
2023/12/04 05:46:01;;;;;;;;;;;;;;;25.61;38.76;93866.94;4952593;28;9216;-86
2023/12/04 05:48:30;;;;;;;;;;;;;;;25.60;39.40;93855.16;4947289;28;7252;-87
2023/12/04 05:50:57;;;;;;;;;;;;;;;25.62;39.18;93869.16;4966349;28;8869;-86
2023/12/04 05:53:32;;;;;;;;;;;;;;;25.64;39.16;93846.63;4951090;28;9095;-86
2023/12/04 05:56:00;;;;;;;;;;;;;;;25.61;39.11;93842.16;4970968;28;6984;-86
2023/12/04 05:58:32;;;;;;;;;;;;;;;25.72;38.68;93848.25;4970621;28;8713;-86
2023/12/04 06:00:58;;;;;;;;;;;;;;;25.74;38.77;93836.69;4956477;28;8033;-86
2023/12/04 06:03:25;;;;;;;;;;;;;;;25.72;39.13;93823.44;4952675;28;9025;-86
2023/12/04 06:05:53;;;;;;;;;;;;;;;25.76;38.90;93823.88;4948249;28;9015;-87
2023/12/04 06:08:26;;;;;;;;;;;;;;;25.82;39.04;93816.25;4956206;28;6927;-87
2023/12/04 06:10:53;;;;;;;;;;;;;;;25.83;38.82;93801.22;4969210;28;9086;-87
2023/12/04 06:13:26;;;;;;;;;;;;;;;25.86;38.83;93810.47;4947745;28;6952;-84
2023/12/04 06:15:55;;;;;;;;;;;;;;;25.88;38.48;93791.38;4972190;28;7224;-84
2023/12/04 06:18:21;;;;;;;;;;;;;;;25.82;38.67;93777.69;4952886;28;8704;-84
2023/12/04 06:20:57;;;;;;;;;;;;;;;25.90;38.37;93783.34;4944682;28;7045;-84
2023/12/04 06:23:28;;;;;;;;;;;;;;;25.89;38.65;93785.34;4949965;28;8873;-86
2023/12/04 06:26:00;;;;;;;;;;;;;;;25.87;38.92;93789.91;4970998;28;6999;-85
2023/12/04 06:28:33;;;;;;;;;;;;;;;25.90;38.80;93797.84;4955106;28;6873;-85
2023/12/04 06:31:04;;;;;;;;;;;;;;;25.90;38.93;93792.31;4967545;28;8750;-84
2023/12/04 06:33:33;;;;;;;;;;;;;;;25.94;39.13;93812.06;4954160;28;8686;-84
2023/12/04 06:36:14;;;;;;;;;;;;;;;25.95;38.32;93802.53;4957822;28;7311;-85
2023/12/04 06:38:43;;;;;;;;;;;;;;;25.93;37.56;93794.03;4951870;28;7488;-84
2023/12/04 06:41:12;;;;;;;;;;;;;;;25.95;36.90;93802.53;4955391;28;7457;-84
2023/12/04 06:43:42;;;;;;;;;;;;;;;25.95;37.52;93790.75;4965516;28;7124;-84
2023/12/04 06:46:15;;;;;;;;;;;;;;;25.94;36.93;93786.53;4955798;28;7015;-84
2023/12/04 06:48:56;;;;;;;;;;;;;;;25.94;36.96;93790.03;4966524;28;7265;-84
2023/12/04 06:51:23;;;;;;;;;;;;;;;25.89;36.09;93793.63;4946317;28;6988;-84
2023/12/04 06:53:49;;;;;;;;;;;;;;;25.88;36.56;93794.88;4966723;28;9104;-84
2023/12/04 06:56:16;;;;;;;;;;;;;;;25.89;37.23;93801.13;4971374;28;7264;-84
2023/12/04 06:58:43;;;;;;;;;;;;;;;25.90;36.23;93789.56;4954799;28;9112;-84
2023/12/04 07:01:13;;;;;;;;;;;;;;;25.86;35.75;93783.63;4954549;28;8993;-84
2023/12/04 07:03:40;;;;;;;;;;;;;;;25.84;34.87;93796.44;4955736;28;7234;-84
2023/12/04 07:06:09;;;;;;;;;;;;;;;25.77;35.79;93781.31;4971407;28;7266;-84
2023/12/04 07:08:42;;;;;;;;;;;;;;;25.81;34.73;93790.00;4949700;28;7042;-84
2023/12/04 07:11:15;;;;;;;;;;;;;;;25.78;35.06;93779.28;4964822;28;7518;-85
2023/12/04 07:13:42;;;;;;;;;;;;;;;25.76;35.42;93768.78;4971170;28;8759;-84
2023/12/04 07:16:08;;;;;;;;;;;;;;;25.79;35.42;93764.25;4983073;23;8739;-86
2023/12/04 07:18:34;;;;;;;;;;;;;;;25.83;35.95;93764.66;5007660;28;8858;-84
2023/12/04 07:21:07;;;;;;;;;;;;;;;25.83;35.97;93781.19;5004125;28;8761;-84
2023/12/04 07:23:38;;;;;;;;;;;;;;;25.82;36.20;93790.72;4992560;28;9152;-84
2023/12/04 07:26:08;;;;;;;;;;;;;;;25.79;35.95;93769.75;4993007;28;7231;-84
2023/12/04 07:28:36;;;;;;;;;;;;;;;25.77;35.98;93756.50;4991017;28;9038;-85
2023/12/04 07:31:09;;;;;;;;;;;;;;;25.77;35.81;93742.75;5000111;28;6868;-83
2023/12/04 07:33:45;;;;;;;;;;;;;;;25.83;36.77;93731.63;4984982;28;8810;-84
2023/12/04 07:36:24;;;;;;;;;;;;;;;25.86;36.72;93728.53;5005405;28;7255;-84
2023/12/04 07:39:06;;;;;;;;;;;;;;;25.87;36.55;93729.28;4994952;28;7007;-84
2023/12/04 07:41:43;;;;;;;;;;;;;;;25.86;37.17;93720.28;5008485;28;8234;-84
2023/12/04 07:44:09;;;;;;;;;;;;;;;25.85;36.65;93738.09;4989168;28;7025;-84
2023/12/04 07:46:37;;;;;;;;;;;;;;;25.86;36.12;93747.81;5008490;28;8952;-84
2023/12/04 07:49:03;;;;;;;;;;;;;;;25.86;36.74;93745.06;5006128;28;9026;-84
2023/12/04 07:51:45;;;;;;;;;;;;;;;25.85;36.57;93724.31;4995143;28;7233;-84
2023/12/04 07:54:11;;;;;;;;;;;;;;;25.83;36.67;93735.13;4994999;28;8717;-84
2023/12/04 07:56:37;;;;;;;;;;;;;;;25.83;37.22;93737.88;4990183;28;8226;-84
2023/12/04 07:59:05;;;;;;;;;;;;;;;25.89;37.07;93746.03;5005618;28;10014;-86
2023/12/04 08:01:57;;;;;;;;;;;;;;;25.93;37.32;93755.47;4994362;28;8964;-84
2023/12/04 08:04:27;;;;;;;;;;;;;;;25.92;36.66;93753.25;4935625;29;9082;-84
2023/12/04 08:06:56;;;;;;;;;;;;;;;25.87;37.34;93749.31;4920363;29;9060;-85
2023/12/04 08:09:24;;;;;;;;;;;;;;;25.95;37.27;93743.91;4925976;28;8609;-84
2023/12/04 08:11:52;;;;;;;;;;;;;;;25.95;37.70;93719.84;4926752;29;9024;-85
2023/12/04 08:14:20;;;;;;;;;;;;;;;25.96;37.79;93715.84;4929601;29;9060;-85
2023/12/04 08:16:50;;;;;;;;;;;;;;;25.95;36.96;93716.34;4898292;29;8856;-84
2023/12/04 08:19:23;;;;;;;;;;;;;;;25.96;37.23;93707.56;4892924;29;7241;-85
2023/12/04 08:21:51;;;;;;;;;;;;;;;25.97;37.40;93705.53;4913816;29;8741;-84
2023/12/04 08:24:19;;;;;;;;;;;;;;;25.97;36.77;93711.81;4913999;29;7169;-84
2023/12/04 08:26:58;;;;;;;;;;;;;;;25.97;37.76;93724.84;4916394;29;8500;-83
2023/12/04 08:29:27;;;;;;;;;;;;;;;25.99;38.87;93731.31;4900288;29;7180;-84
2023/12/04 08:31:53;;;;;;;;;;;;;;;26.02;39.40;93724.75;4899559;29;7411;-85
2023/12/04 08:34:19;;;;;;;;;;;;;;;26.01;38.11;93720.50;4914626;29;7279;-84
2023/12/04 08:37:16;;;;;;;;;;;;;;;26.00;38.21;93721.78;4904758;29;8691;-85
2023/12/04 08:39:51;;;;;;;;;;;;;;;25.99;38.16;93736.81;4840632;29;6879;-84
2023/12/04 08:42:19;;;;;;;;;;;;;;;25.94;37.37;93740.44;4874181;29;7250;-84
2023/12/04 08:44:47;;;;;;;;;;;;;;;25.90;37.06;93762.03;4897510;29;7238;-84
2023/12/04 08:47:16;;;;;;;;;;;;;;;25.86;37.05;93760.88;4876619;29;8795;-84
2023/12/04 08:49:46;;;;;;;;;;;;;;;25.90;37.29;93777.84;4895957;29;7279;-84
2023/12/04 08:52:28;;;;;;;;;;;;;;;25.93;37.49;93776.75;4906532;29;8995;-84
2023/12/04 08:55:04;;;;;;;;;;;;;;;25.93;36.83;93772.00;4899570;29;7263;-84
2023/12/04 08:57:31;;;;;;;;;;;;;;;25.94;37.30;93787.28;4872405;29;7262;-85
2023/12/04 08:59:57;;;;;;;;;;;;;;;25.90;36.51;93781.31;4897680;29;7244;-85
2023/12/04 09:02:25;;;;;;;;;;;;;;;25.86;35.71;93753.31;4897562;29;7292;-83
2023/12/04 09:04:56;;;;;;;;;;;;;;;25.87;36.19;93754.81;4896968;29;7227;-84
2023/12/04 09:07:24;;;;;;;;;;;;;;;25.88;35.55;93761.09;4902492;29;7009;-84
2023/12/04 09:09:55;;;;;;;;;;;;;;;25.88;36.54;93774.88;4896243;29;7305;-85
2023/12/04 09:12:35;;;;;;;;;;;;;;;25.90;36.12;93773.03;4898830;29;7059;-85
2023/12/04 09:15:04;;;;;;;;;;;;;;;25.92;36.24;93787.06;4877240;28;7260;-84
2023/12/04 09:17:33;;;;;;;;;;;;;;;25.91;35.93;93791.06;4989271;28;8740;-85
2023/12/04 09:20:05;;;;;;;;;;;;;;;25.91;35.94;93791.06;4974426;28;7479;-84
2023/12/04 09:22:38;;;;;;;;;;;;;;;25.91;35.60;93771.03;4973984;28;9101;-84
2023/12/04 09:25:08;;;;;;;;;;;;;;;25.93;36.28;93771.25;4972749;28;7597;-84
2023/12/04 09:27:35;;;;;;;;;;;;;;;25.92;36.03;93758.75;4989443;28;9187;-84
2023/12/04 09:30:02;;;;;;;;;;;;;;;25.92;35.89;93767.78;4986798;28;9100;-84
2023/12/04 09:32:28;;;;;;;;;;;;;;;25.94;36.62;93756.97;4987301;28;8759;-84
2023/12/04 09:34:57;;;;;;;;;;;;;;;25.99;36.56;93771.91;4973662;28;8780;-84
2023/12/04 09:37:29;;;;;;;;;;;;;;;25.97;36.67;93772.41;4972606;28;8714;-84
2023/12/04 09:40:02;;;;;;;;;;;;;;;25.98;36.34;93762.16;4990330;28;9015;-84
2023/12/04 09:42:35;;;;;;;;;;;;;;;25.97;35.97;93753.13;4989750;28;7249;-84
2023/12/04 09:45:03;;;;;;;;;;;;;;;26.02;36.65;93746.78;4988030;28;8201;-84
2023/12/04 09:47:38;;;;;;;;;;;;;;;26.04;36.13;93735.22;4962495;28;7326;-85
2023/12/04 09:50:10;;;;;;;;;;;;;;;25.99;36.87;93742.31;4970637;28;6873;-84
2023/12/04 09:52:38;;;;;;;;;;;;;;;26.04;36.29;93740.75;4990080;28;8736;-85
2023/12/04 09:55:11;;;;;;;;;;;;;;;26.04;35.91;93740.75;4974216;28;7074;-84
2023/12/04 09:57:38;;;;;;;;;;;;;;;26.02;36.32;93735.75;4972744;28;6856;-85
2023/12/04 10:00:07;;;;;;;;;;;;;;;26.01;36.11;93737.03;4971280;28;9338;-84
2023/12/04 10:02:36;;;;;;;;;;;;;;;26.04;35.75;93733.22;4985514;28;7277;-85
2023/12/04 10:05:05;;;;;;;;;;;;;;;25.98;36.63;93724.31;4990478;28;9175;-84
2023/12/04 10:07:41;;;;;;;;;;;;;;;26.01;36.34;93734.28;4973203;28;9344;-84
2023/12/04 10:10:18;;;;;;;;;;;;;;;26.04;36.36;93754.53;4966349;28;7321;-84
2023/12/04 10:12:46;;;;;;;;;;;;;;;26.00;36.81;93746.56;4970732;28;7225;-84
2023/12/04 10:15:20;;;;;;;;;;;;;;;26.04;36.33;93735.22;4972279;28;7032;-86
2023/12/04 10:17:47;;;;;;;;;;;;;;;26.04;36.71;93741.50;4985528;28;7112;-84
2023/12/04 10:20:26;;;;;;;;;;;;;;;26.08;36.41;93736.44;4971090;28;7239;-84
2023/12/04 10:22:59;;;;;;;;;;;;;;;26.09;36.00;93734.41;4986851;28;10077;-85
2023/12/04 10:25:28;;;;;;;;;;;;;;;26.08;36.92;93736.44;4969224;28;7094;-84
2023/12/04 10:28:10;;;;;;;;;;;;;;;26.07;36.49;93731.44;4986842;28;6996;-85
2023/12/04 10:30:38;;;;;;;;;;;;;;;26.07;36.24;93726.66;4966028;28;7215;-84
2023/12/04 10:33:14;;;;;;;;;;;;;;;26.08;36.97;93721.88;4965895;28;7242;-85
2023/12/04 10:35:43;;;;;;;;;;;;;;;26.07;36.24;93723.91;4985758;28;7167;-85
2023/12/04 10:38:14;;;;;;;;;;;;;;;26.07;37.17;93714.88;4968960;28;8279;-86
2023/12/04 10:40:41;;;;;;;;;;;;;;;26.04;36.49;93711.19;4966206;28;7028;-84
2023/12/04 10:43:26;;;;;;;;;;;;;;;26.06;36.40;93722.41;4987966;28;9246;-84
2023/12/04 10:45:59;;;;;;;;;;;;;;;26.05;36.30;93707.16;4982996;28;7267;-84
2023/12/04 10:48:26;;;;;;;;;;;;;;;26.06;37.47;93700.38;4976967;28;6859;-85
2023/12/04 10:50:58;;;;;;;;;;;;;;;26.04;36.44;93693.88;4978192;28;8741;-84
2023/12/04 10:53:27;;;;;;;;;;;;;;;26.02;37.10;93693.69;4978188;28;7308;-85
2023/12/04 10:56:04;;;;;;;;;;;;;;;26.06;36.70;93696.84;4988437;28;8779;-84
2023/12/04 10:58:38;;;;;;;;;;;;;;;26.06;36.45;93672.06;4975606;28;7067;-85
2023/12/04 11:01:15;;;;;;;;;;;;;;;26.10;37.20;93655.97;4994162;28;7266;-84
2023/12/04 11:03:44;;;;;;;;;;;;;;;26.07;36.98;93652.25;4993037;28;9042;-85
2023/12/04 11:06:21;;;;;;;;;;;;;;;26.06;36.87;93678.31;4993319;28;7152;-84
2023/12/04 11:08:59;;;;;;;;;;;;;;;26.05;37.14;93674.09;4988612;28;7803;-84
2023/12/04 11:11:36;;;;;;;;;;;;;;;26.04;37.35;93675.34;4991805;28;7228;-84
2023/12/04 11:14:11;;;;;;;;;;;;;;;26.02;37.37;93663.38;4990339;28;9144;-84
2023/12/04 11:16:45;;;;;;;;;;;;;;;26.03;36.81;93667.63;4975176;28;7357;-84
2023/12/04 11:19:39;;;;;;;;;;;;;;;26.06;37.24;93677.56;4983903;28;9089;-85
2023/12/04 11:22:11;;;;;;;;;;;;;;;26.04;37.03;93683.63;4971730;28;9336;-84
2023/12/04 11:24:43;;;;;;;;;;;;;;;26.08;37.05;93691.56;4972989;28;7280;-84
2023/12/04 11:27:10;;;;;;;;;;;;;;;26.07;36.81;93682.56;4975851;28;8784;-84
2023/12/04 11:29:43;;;;;;;;;;;;;;;26.08;36.92;93667.53;4991471;28;7034;-85
2023/12/04 11:32:15;;;;;;;;;;;;;;;26.08;36.78;93656.50;4977227;28;7345;-85
2023/12/04 11:34:56;;;;;;;;;;;;;;;26.03;37.07;93671.09;4992307;28;7247;-84
2023/12/04 11:37:29;;;;;;;;;;;;;;;26.04;37.20;93669.09;4986181;28;7229;-84
2023/12/04 11:40:02;;;;;;;;;;;;;;;26.05;37.24;93660.31;4974048;28;8725;-84
2023/12/04 11:42:33;;;;;;;;;;;;;;;26.04;37.54;93645.03;4975623;28;8873;-84
2023/12/04 11:45:05;;;;;;;;;;;;;;;26.03;37.31;93643.53;4974198;28;9011;-84
2023/12/04 11:47:55;;;;;;;;;;;;;;;26.08;37.30;93636.44;4990206;28;7352;-85
2023/12/04 11:50:26;;;;;;;;;;;;;;;26.05;37.42;93621.72;4972733;28;7031;-84
2023/12/04 11:53:03;;;;;;;;;;;;;;;26.06;37.29;93614.94;4975324;28;9045;-84
2023/12/04 11:55:29;;;;;;;;;;;;;;;26.07;37.34;93605.41;4969529;28;7203;-84
2023/12/04 11:57:59;;;;;;;;;;;;;;;26.08;37.55;93595.88;4994682;28;9097;-84
2023/12/04 12:00:30;;;;;;;;;;;;;;;26.07;37.09;93593.63;4971862;28;9175;-84
2023/12/04 12:03:01;;;;;;;;;;;;;;;26.08;36.91;93595.09;4975202;28;7239;-85
2023/12/04 12:05:27;;;;;;;;;;;;;;;26.06;37.25;93595.63;4989883;28;7296;-87
2023/12/04 12:08:02;;;;;;;;;;;;;;;26.04;37.48;93583.66;4974536;28;9007;-87
2023/12/04 12:10:29;;;;;;;;;;;;;;;26.09;37.35;93591.09;4990486;28;7271;-87
2023/12/04 12:12:56;;;;;;;;;;;;;;;26.03;37.65;93584.94;4986877;28;7482;-87
2023/12/04 12:15:28;;;;;;;;;;;;;;;26.09;37.93;93586.34;4972454;28;7013;-87
2023/12/04 12:18:00;;;;;;;;;;;;;;;26.07;37.32;93574.34;4970728;28;7215;-87
2023/12/04 12:20:54;;;;;;;;;;;;;;;26.13;37.83;93575.72;4963837;28;9238;-87
2023/12/04 12:23:20;;;;;;;;;;;;;;;26.12;37.73;93568.72;4952081;28;6982;-87
2023/12/04 12:25:54;;;;;;;;;;;;;;;26.14;37.72;93571.69;4945760;28;8740;-87
2023/12/04 12:28:34;;;;;;;;;;;;;;;26.13;38.04;93572.97;4931170;28;7008;-88
2023/12/04 12:31:09;;;;;;;;;;;;;;;26.14;37.69;93579.25;4950259;28;7235;-88
2023/12/04 12:33:35;;;;;;;;;;;;;;;26.13;37.32;93581.25;4934806;28;8750;-88
2023/12/04 12:36:05;;;;;;;;;;;;;;;26.14;37.59;93562.69;4955826;28;8615;-88
2023/12/04 12:38:34;;;;;;;;;;;;;;;26.14;37.93;93551.69;4934960;28;7157;-88
2023/12/04 12:41:03;;;;;;;;;;;;;;;26.11;37.36;93528.69;4938345;28;7112;-88
2023/12/04 12:43:31;;;;;;;;;;;;;;;26.11;37.78;93545.22;4931627;28;8832;-88
2023/12/04 12:45:59;;;;;;;;;;;;;;;26.08;37.89;93526.19;4934977;28;7032;-87
2023/12/04 12:48:35;;;;;;;;;;;;;;;26.12;37.93;93532.19;4935499;28;8839;-88
2023/12/04 12:51:11;;;;;;;;;;;;;;;26.14;37.82;93544.13;4948435;28;7256;-88
2023/12/04 12:53:45;;;;;;;;;;;;;;;26.12;38.58;93535.66;4936403;28;7124;-87
2023/12/04 12:56:14;;;;;;;;;;;;;;;26.09;37.96;93531.22;4937340;28;7265;-87
2023/12/04 12:58:46;;;;;;;;;;;;;;;26.15;38.05;93534.59;4947428;28;8994;-87
2023/12/04 13:01:18;;;;;;;;;;;;;;;26.13;37.85;93528.88;4967153;28;9023;-87
2023/12/04 13:03:49;;;;;;;;;;;;;;;26.11;38.18;93519.66;4966246;28;8978;-87
2023/12/04 13:06:25;;;;;;;;;;;;;;;26.08;38.25;93506.91;4971554;28;6868;-88
2023/12/04 13:08:58;;;;;;;;;;;;;;;26.08;37.96;93513.19;4988293;28;8917;-87
2023/12/04 13:11:34;;;;;;;;;;;;;;;26.11;38.15;93514.16;4972609;28;8714;-87
2023/12/04 13:14:05;;;;;;;;;;;;;;;26.12;37.86;93507.38;4973281;28;9306;-88
2023/12/04 13:16:35;;;;;;;;;;;;;;;26.09;37.91;93503.66;4974920;28;8759;-88
2023/12/04 13:19:06;;;;;;;;;;;;;;;26.06;38.23;93490.91;4973520;28;7270;-88